Saronville, Nebraska
Current Conditions -  °F | °C
As of 10:35 PM on Saturday 20 Dec 2014 (Local Time) from KAUH Reporting Station
Moderate Fog Moderate Fog  
Wind Chill: 26°   Ceiling: 100
Heat Index: 32°   Visibility: 0.25mi
Dew Point: 32°   Wind: 6mph
Humidity: 100%   Direction: 170°S
Pressure: 29.96"   Gusts: NA
Location:  40.6°N, 97.94°W
Report Text: KAUH 210435Z AUTO 17005KT 1/4SM FG OVC001 00/00 A2996 RMK AO2 T00000000
Loading
Personal Weather Stations






























Interactive Weather Map New forecast layout! Learn more

10-Day Weather Forecast

Advertisements
Track Severe Weather on mobile